sensor_id;sensor_type;location;lat;lon;timestamp;P1;durP1;ratioP1;P2;durP2;ratioP2
15831;SDS011;8016;49.928;9.372;2023-04-25T00:00:29;6.37;;;5.77;;
15831;SDS011;8016;49.928;9.372;2023-04-25T00:02:55;7.13;;;6.43;;
15831;SDS011;8016;49.928;9.372;2023-04-25T00:05:21;7.47;;;6.43;;
15831;SDS011;8016;49.928;9.372;2023-04-25T00:07:48;6.00;;;5.50;;
15831;SDS011;8016;49.928;9.372;2023-04-25T00:10:14;9.93;;;7.23;;
15831;SDS011;8016;49.928;9.372;2023-04-25T00:12:40;6.17;;;5.57;;
15831;SDS011;8016;49.928;9.372;2023-04-25T00:15:06;6.00;;;5.47;;
15831;SDS011;8016;49.928;9.372;2023-04-25T00:17:33;6.13;;;5.63;;
15831;SDS011;8016;49.928;9.372;2023-04-25T00:20:00;5.90;;;5.40;;
15831;SDS011;8016;49.928;9.372;2023-04-25T00:22:25;6.07;;;5.53;;
15831;SDS011;8016;49.928;9.372;2023-04-25T00:24:51;6.83;;;5.97;;
15831;SDS011;8016;49.928;9.372;2023-04-25T00:27:18;6.80;;;6.07;;
15831;SDS011;8016;49.928;9.372;2023-04-25T00:29:44;7.43;;;6.47;;
15831;SDS011;8016;49.928;9.372;2023-04-25T00:32:10;6.73;;;6.13;;
15831;SDS011;8016;49.928;9.372;2023-04-25T00:34:36;7.03;;;6.33;;
15831;SDS011;8016;49.928;9.372;2023-04-25T00:37:02;7.23;;;6.53;;
15831;SDS011;8016;49.928;9.372;2023-04-25T00:39:28;6.90;;;6.17;;
15831;SDS011;8016;49.928;9.372;2023-04-25T00:41:54;9.03;;;6.43;;
15831;SDS011;8016;49.928;9.372;2023-04-25T00:44:20;6.33;;;5.73;;
15831;SDS011;8016;49.928;9.372;2023-04-25T00:46:47;6.53;;;5.90;;
15831;SDS011;8016;49.928;9.372;2023-04-25T00:49:14;7.17;;;6.47;;
15831;SDS011;8016;49.928;9.372;2023-04-25T00:51:41;7.20;;;6.13;;
15831;SDS011;8016;49.928;9.372;2023-04-25T00:54:08;6.03;;;5.43;;
15831;SDS011;8016;49.928;9.372;2023-04-25T00:56:35;6.30;;;5.70;;
15831;SDS011;8016;49.928;9.372;2023-04-25T00:59:01;6.20;;;5.70;;
15831;SDS011;8016;49.928;9.372;2023-04-25T01:01:27;6.37;;;5.77;;
15831;SDS011;8016;49.928;9.372;2023-04-25T01:03:53;7.50;;;6.10;;
15831;SDS011;8016;49.928;9.372;2023-04-25T01:06:19;5.90;;;5.33;;
15831;SDS011;8016;49.928;9.372;2023-04-25T01:08:47;5.67;;;5.17;;
15831;SDS011;8016;49.928;9.372;2023-04-25T01:11:13;5.70;;;5.03;;
15831;SDS011;8016;49.928;9.372;2023-04-25T01:13:39;5.80;;;5.30;;
15831;SDS011;8016;49.928;9.372;2023-04-25T01:16:05;5.63;;;5.13;;
15831;SDS011;8016;49.928;9.372;2023-04-25T01:18:31;6.00;;;5.17;;
15831;SDS011;8016;49.928;9.372;2023-04-25T01:21:02;6.07;;;5.37;;
15831;SDS011;8016;49.928;9.372;2023-04-25T01:23:32;5.50;;;5.00;;
15831;SDS011;8016;49.928;9.372;2023-04-25T01:25:58;8.00;;;5.67;;
15831;SDS011;8016;49.928;9.372;2023-04-25T01:28:25;6.90;;;6.30;;
15831;SDS011;8016;49.928;9.372;2023-04-25T01:30:51;6.60;;;6.00;;
15831;SDS011;8016;49.928;9.372;2023-04-25T01:33:17;6.23;;;5.63;;
15831;SDS011;8016;49.928;9.372;2023-04-25T01:35:44;5.10;;;4.63;;
15831;SDS011;8016;49.928;9.372;2023-04-25T01:38:12;4.83;;;4.33;;
15831;SDS011;8016;49.928;9.372;2023-04-25T01:40:38;5.03;;;4.53;;
15831;SDS011;8016;49.928;9.372;2023-04-25T01:43:04;5.03;;;4.53;;
15831;SDS011;8016;49.928;9.372;2023-04-25T01:45:30;5.20;;;4.70;;
15831;SDS011;8016;49.928;9.372;2023-04-25T01:47:57;4.60;;;4.20;;
15831;SDS011;8016;49.928;9.372;2023-04-25T01:50:24;4.40;;;4.00;;
15831;SDS011;8016;49.928;9.372;2023-04-25T01:52:50;5.20;;;4.60;;
15831;SDS011;8016;49.928;9.372;2023-04-25T01:55:16;5.17;;;4.67;;
15831;SDS011;8016;49.928;9.372;2023-04-25T01:57:42;5.23;;;4.73;;
15831;SDS011;8016;49.928;9.372;2023-04-25T02:00:08;6.10;;;4.93;;
15831;SDS011;8016;49.928;9.372;2023-04-25T02:02:35;6.07;;;5.20;;
15831;SDS011;8016;49.928;9.372;2023-04-25T02:05:01;5.90;;;5.30;;
15831;SDS011;8016;49.928;9.372;2023-04-25T02:07:27;6.50;;;5.80;;
15831;SDS011;8016;49.928;9.372;2023-04-25T02:09:53;6.33;;;5.73;;
15831;SDS011;8016;49.928;9.372;2023-04-25T02:12:19;6.83;;;5.70;;
15831;SDS011;8016;49.928;9.372;2023-04-25T02:14:45;7.20;;;6.50;;
15831;SDS011;8016;49.928;9.372;2023-04-25T02:17:10;7.80;;;6.37;;
15831;SDS011;8016;49.928;9.372;2023-04-25T02:19:37;8.63;;;6.27;;
15831;SDS011;8016;49.928;9.372;2023-04-25T02:22:03;7.07;;;6.40;;
15831;SDS011;8016;49.928;9.372;2023-04-25T02:24:29;8.13;;;7.33;;
15831;SDS011;8016;49.928;9.372;2023-04-25T02:26:56;10.00;;;7.40;;
15831;SDS011;8016;49.928;9.372;2023-04-25T02:29:22;8.07;;;7.37;;
15831;SDS011;8016;49.928;9.372;2023-04-25T02:31:48;9.67;;;8.73;;
15831;SDS011;8016;49.928;9.372;2023-04-25T02:34:15;8.77;;;7.97;;
15831;SDS011;8016;49.928;9.372;2023-04-25T02:36:40;10.33;;;8.60;;
15831;SDS011;8016;49.928;9.372;2023-04-25T02:39:06;9.40;;;8.40;;
15831;SDS011;8016;49.928;9.372;2023-04-25T02:41:32;10.50;;;9.40;;
15831;SDS011;8016;49.928;9.372;2023-04-25T02:43:58;10.90;;;9.80;;
15831;SDS011;8016;49.928;9.372;2023-04-25T02:46:24;11.03;;;9.37;;
15831;SDS011;8016;49.928;9.372;2023-04-25T02:48:50;10.67;;;9.63;;
15831;SDS011;8016;49.928;9.372;2023-04-25T02:51:16;10.80;;;9.87;;
15831;SDS011;8016;49.928;9.372;2023-04-25T02:53:42;10.67;;;9.63;;
15831;SDS011;8016;49.928;9.372;2023-04-25T02:56:08;11.97;;;10.77;;
15831;SDS011;8016;49.928;9.372;2023-04-25T02:58:34;11.10;;;10.00;;
15831;SDS011;8016;49.928;9.372;2023-04-25T03:01:00;13.40;;;10.80;;
15831;SDS011;8016;49.928;9.372;2023-04-25T03:03:26;10.93;;;9.83;;
15831;SDS011;8016;49.928;9.372;2023-04-25T03:05:52;11.23;;;10.13;;
15831;SDS011;8016;49.928;9.372;2023-04-25T03:08:18;10.40;;;9.50;;
15831;SDS011;8016;49.928;9.372;2023-04-25T03:10:45;10.77;;;9.67;;
15831;SDS011;8016;49.928;9.372;2023-04-25T03:13:11;10.10;;;9.10;;
15831;SDS011;8016;49.928;9.372;2023-04-25T03:15:38;10.53;;;9.53;;
15831;SDS011;8016;49.928;9.372;2023-04-25T03:18:04;10.63;;;9.63;;
15831;SDS011;8016;49.928;9.372;2023-04-25T03:20:30;10.73;;;9.57;;
15831;SDS011;8016;49.928;9.372;2023-04-25T03:22:56;10.97;;;9.87;;
15831;SDS011;8016;49.928;9.372;2023-04-25T03:25:22;9.97;;;9.10;;
15831;SDS011;8016;49.928;9.372;2023-04-25T03:27:48;11.17;;;10.17;;
15831;SDS011;8016;49.928;9.372;2023-04-25T03:30:14;11.17;;;10.07;;
15831;SDS011;8016;49.928;9.372;2023-04-25T03:32:40;11.03;;;9.87;;
15831;SDS011;8016;49.928;9.372;2023-04-25T03:35:06;10.77;;;9.67;;
15831;SDS011;8016;49.928;9.372;2023-04-25T03:37:32;9.97;;;9.07;;
15831;SDS011;8016;49.928;9.372;2023-04-25T03:39:58;10.30;;;9.27;;
15831;SDS011;8016;49.928;9.372;2023-04-25T03:42:24;9.97;;;9.07;;
15831;SDS011;8016;49.928;9.372;2023-04-25T03:44:51;10.43;;;9.43;;
15831;SDS011;8016;49.928;9.372;2023-04-25T03:47:17;11.17;;;9.77;;
15831;SDS011;8016;49.928;9.372;2023-04-25T03:49:43;11.10;;;9.90;;
15831;SDS011;8016;49.928;9.372;2023-04-25T03:52:09;11.30;;;10.30;;
15831;SDS011;8016;49.928;9.372;2023-04-25T03:54:35;11.60;;;10.53;;
15831;SDS011;8016;49.928;9.372;2023-04-25T03:57:01;11.37;;;10.20;;
15831;SDS011;8016;49.928;9.372;2023-04-25T03:59:27;10.97;;;9.97;;
15831;SDS011;8016;49.928;9.372;2023-04-25T04:01:53;11.17;;;10.07;;
15831;SDS011;8016;49.928;9.372;2023-04-25T04:04:20;12.07;;;10.77;;
15831;SDS011;8016;49.928;9.372;2023-04-25T04:06:46;12.60;;;11.30;;
15831;SDS011;8016;49.928;9.372;2023-04-25T04:09:12;11.40;;;10.30;;
15831;SDS011;8016;49.928;9.372;2023-04-25T04:11:38;12.37;;;11.07;;
15831;SDS011;8016;49.928;9.372;2023-04-25T04:14:05;13.00;;;11.80;;
15831;SDS011;8016;49.928;9.372;2023-04-25T04:16:31;12.10;;;10.80;;
15831;SDS011;8016;49.928;9.372;2023-04-25T04:18:57;12.30;;;11.00;;
15831;SDS011;8016;49.928;9.372;2023-04-25T04:21:23;12.67;;;11.37;;
15831;SDS011;8016;49.928;9.372;2023-04-25T04:23:49;10.33;;;9.23;;
15831;SDS011;8016;49.928;9.372;2023-04-25T04:26:15;11.80;;;10.57;;
15831;SDS011;8016;49.928;9.372;2023-04-25T04:28:41;12.10;;;10.90;;
15831;SDS011;8016;49.928;9.372;2023-04-25T04:31:07;12.83;;;11.53;;
15831;SDS011;8016;49.928;9.372;2023-04-25T04:33:34;13.07;;;10.87;;
15831;SDS011;8016;49.928;9.372;2023-04-25T04:36:00;13.10;;;11.00;;
15831;SDS011;8016;49.928;9.372;2023-04-25T04:38:27;11.83;;;10.63;;
15831;SDS011;8016;49.928;9.372;2023-04-25T04:40:54;13.33;;;10.43;;
15831;SDS011;8016;49.928;9.372;2023-04-25T04:43:20;13.43;;;10.00;;
15831;SDS011;8016;49.928;9.372;2023-04-25T04:45:47;13.57;;;10.37;;
15831;SDS011;8016;49.928;9.372;2023-04-25T04:48:14;11.87;;;9.37;;
15831;SDS011;8016;49.928;9.372;2023-04-25T04:50:42;13.70;;;10.13;;
15831;SDS011;8016;49.928;9.372;2023-04-25T04:53:09;15.00;;;9.53;;
15831;SDS011;8016;49.928;9.372;2023-04-25T04:55:36;12.13;;;9.20;;
15831;SDS011;8016;49.928;9.372;2023-04-25T04:58:02;12.90;;;10.07;;
15831;SDS011;8016;49.928;9.372;2023-04-25T05:00:28;11.33;;;9.83;;
15831;SDS011;8016;49.928;9.372;2023-04-25T05:02:54;13.30;;;10.00;;
15831;SDS011;8016;49.928;9.372;2023-04-25T05:05:20;12.27;;;10.60;;
15831;SDS011;8016;49.928;9.372;2023-04-25T05:07:46;13.10;;;10.63;;
15831;SDS011;8016;49.928;9.372;2023-04-25T05:10:12;13.70;;;11.27;;
15831;SDS011;8016;49.928;9.372;2023-04-25T05:12:38;12.40;;;10.43;;
15831;SDS011;8016;49.928;9.372;2023-04-25T05:15:04;15.37;;;10.80;;
15831;SDS011;8016;49.928;9.372;2023-04-25T05:17:30;12.80;;;11.37;;
15831;SDS011;8016;49.928;9.372;2023-04-25T05:19:57;11.63;;;10.43;;
15831;SDS011;8016;49.928;9.372;2023-04-25T05:22:23;13.67;;;11.17;;
15831;SDS011;8016;49.928;9.372;2023-04-25T05:24:49;12.73;;;10.83;;
15831;SDS011;8016;49.928;9.372;2023-04-25T05:27:16;12.80;;;10.63;;
15831;SDS011;8016;49.928;9.372;2023-04-25T05:29:42;13.00;;;11.27;;
15831;SDS011;8016;49.928;9.372;2023-04-25T05:32:08;10.93;;;9.77;;
15831;SDS011;8016;49.928;9.372;2023-04-25T05:34:34;11.23;;;9.77;;
15831;SDS011;8016;49.928;9.372;2023-04-25T05:37:01;11.07;;;9.07;;
15831;SDS011;8016;49.928;9.372;2023-04-25T05:39:27;11.47;;;9.30;;
15831;SDS011;8016;49.928;9.372;2023-04-25T05:41:53;10.33;;;8.57;;
15831;SDS011;8016;49.928;9.372;2023-04-25T05:44:20;12.83;;;9.13;;
15831;SDS011;8016;49.928;9.372;2023-04-25T05:46:46;10.37;;;8.87;;
15831;SDS011;8016;49.928;9.372;2023-04-25T05:49:12;11.63;;;9.57;;
15831;SDS011;8016;49.928;9.372;2023-04-25T05:51:38;11.47;;;9.00;;
15831;SDS011;8016;49.928;9.372;2023-04-25T05:54:04;13.87;;;9.80;;
15831;SDS011;8016;49.928;9.372;2023-04-25T05:56:30;14.10;;;9.90;;
15831;SDS011;8016;49.928;9.372;2023-04-25T05:58:56;14.63;;;10.57;;
15831;SDS011;8016;49.928;9.372;2023-04-25T06:01:22;13.53;;;10.33;;
15831;SDS011;8016;49.928;9.372;2023-04-25T06:03:48;29.43;;;10.03;;
15831;SDS011;8016;49.928;9.372;2023-04-25T06:06:16;14.23;;;10.20;;
15831;SDS011;8016;49.928;9.372;2023-04-25T06:08:42;15.50;;;10.43;;
15831;SDS011;8016;49.928;9.372;2023-04-25T06:11:08;11.90;;;9.27;;
15831;SDS011;8016;49.928;9.372;2023-04-25T06:13:34;11.07;;;9.27;;
15831;SDS011;8016;49.928;9.372;2023-04-25T06:16:00;14.37;;;10.03;;
15831;SDS011;8016;49.928;9.372;2023-04-25T06:18:26;13.73;;;10.50;;
15831;SDS011;8016;49.928;9.372;2023-04-25T06:20:52;11.73;;;9.27;;
15831;SDS011;8016;49.928;9.372;2023-04-25T06:23:17;12.20;;;9.93;;
15831;SDS011;8016;49.928;9.372;2023-04-25T06:25:43;11.67;;;9.17;;
15831;SDS011;8016;49.928;9.372;2023-04-25T06:28:09;13.63;;;9.97;;
15831;SDS011;8016;49.928;9.372;2023-04-25T06:30:35;15.10;;;7.90;;
15831;SDS011;8016;49.928;9.372;2023-04-25T06:33:01;14.33;;;7.50;;
15831;SDS011;8016;49.928;9.372;2023-04-25T06:35:27;14.37;;;7.37;;
15831;SDS011;8016;49.928;9.372;2023-04-25T06:37:53;12.37;;;8.10;;
15831;SDS011;8016;49.928;9.372;2023-04-25T06:40:19;15.33;;;8.00;;
15831;SDS011;8016;49.928;9.372;2023-04-25T06:42:45;9.80;;;6.40;;
15831;SDS011;8016;49.928;9.372;2023-04-25T06:45:11;13.37;;;6.53;;
15831;SDS011;8016;49.928;9.372;2023-04-25T06:47:37;8.83;;;5.80;;
15831;SDS011;8016;49.928;9.372;2023-04-25T06:50:03;9.37;;;5.53;;
15831;SDS011;8016;49.928;9.372;2023-04-25T06:52:29;6.40;;;5.20;;
15831;SDS011;8016;49.928;9.372;2023-04-25T06:54:55;8.47;;;5.00;;
15831;SDS011;8016;49.928;9.372;2023-04-25T06:57:21;6.03;;;4.57;;
15831;SDS011;8016;49.928;9.372;2023-04-25T06:59:48;4.03;;;3.53;;
15831;SDS011;8016;49.928;9.372;2023-04-25T07:02:14;5.80;;;3.70;;
15831;SDS011;8016;49.928;9.372;2023-04-25T07:04:40;6.93;;;3.37;;
15831;SDS011;8016;49.928;9.372;2023-04-25T07:07:06;6.53;;;3.40;;
15831;SDS011;8016;49.928;9.372;2023-04-25T07:09:32;6.10;;;3.57;;
15831;SDS011;8016;49.928;9.372;2023-04-25T07:11:59;8.93;;;4.10;;
15831;SDS011;8016;49.928;9.372;2023-04-25T07:14:26;7.80;;;4.47;;
15831;SDS011;8016;49.928;9.372;2023-04-25T07:16:52;7.20;;;3.80;;
15831;SDS011;8016;49.928;9.372;2023-04-25T07:19:18;7.93;;;3.63;;
15831;SDS011;8016;49.928;9.372;2023-04-25T07:21:44;8.37;;;3.97;;
15831;SDS011;8016;49.928;9.372;2023-04-25T07:24:10;6.03;;;4.17;;
15831;SDS011;8016;49.928;9.372;2023-04-25T07:26:36;4.40;;;4.00;;
15831;SDS011;8016;49.928;9.372;2023-04-25T07:29:02;7.40;;;5.23;;
15831;SDS011;8016;49.928;9.372;2023-04-25T07:31:28;6.73;;;3.53;;
15831;SDS011;8016;49.928;9.372;2023-04-25T07:33:54;5.57;;;3.73;;
15831;SDS011;8016;49.928;9.372;2023-04-25T07:36:20;4.00;;;3.60;;
15831;SDS011;8016;49.928;9.372;2023-04-25T07:38:46;6.47;;;4.70;;
15831;SDS011;8016;49.928;9.372;2023-04-25T07:41:12;6.37;;;5.03;;
15831;SDS011;8016;49.928;9.372;2023-04-25T07:43:38;9.17;;;4.70;;
15831;SDS011;8016;49.928;9.372;2023-04-25T07:46:04;10.43;;;4.57;;
15831;SDS011;8016;49.928;9.372;2023-04-25T07:48:30;7.53;;;4.40;;
15831;SDS011;8016;49.928;9.372;2023-04-25T07:50:56;7.63;;;4.07;;
15831;SDS011;8016;49.928;9.372;2023-04-25T07:53:22;6.43;;;3.93;;
15831;SDS011;8016;49.928;9.372;2023-04-25T07:55:48;4.83;;;3.50;;
15831;SDS011;8016;49.928;9.372;2023-04-25T07:58:14;4.80;;;3.37;;
15831;SDS011;8016;49.928;9.372;2023-04-25T08:00:40;7.47;;;3.30;;
15831;SDS011;8016;49.928;9.372;2023-04-25T08:03:07;8.73;;;3.67;;
15831;SDS011;8016;49.928;9.372;2023-04-25T08:05:33;8.80;;;3.60;;
15831;SDS011;8016;49.928;9.372;2023-04-25T08:07:59;10.37;;;4.77;;
15831;SDS011;8016;49.928;9.372;2023-04-25T08:10:25;7.67;;;3.50;;
15831;SDS011;8016;49.928;9.372;2023-04-25T08:12:51;5.63;;;3.20;;
15831;SDS011;8016;49.928;9.372;2023-04-25T08:15:17;4.67;;;3.23;;
15831;SDS011;8016;49.928;9.372;2023-04-25T08:17:42;5.70;;;3.33;;
15831;SDS011;8016;49.928;9.372;2023-04-25T08:20:09;5.30;;;3.40;;
15831;SDS011;8016;49.928;9.372;2023-04-25T08:22:35;7.37;;;3.90;;
15831;SDS011;8016;49.928;9.372;2023-04-25T08:25:01;7.70;;;3.20;;
15831;SDS011;8016;49.928;9.372;2023-04-25T08:27:27;7.07;;;4.00;;
15831;SDS011;8016;49.928;9.372;2023-04-25T08:29:53;6.00;;;3.10;;
15831;SDS011;8016;49.928;9.372;2023-04-25T08:32:19;6.20;;;4.57;;
15831;SDS011;8016;49.928;9.372;2023-04-25T08:34:46;4.73;;;3.07;;
15831;SDS011;8016;49.928;9.372;2023-04-25T08:37:12;9.07;;;6.20;;
15831;SDS011;8016;49.928;9.372;2023-04-25T08:39:38;3.50;;;3.17;;
15831;SDS011;8016;49.928;9.372;2023-04-25T08:42:07;7.07;;;2.83;;
15831;SDS011;8016;49.928;9.372;2023-04-25T08:44:33;3.60;;;3.00;;
15831;SDS011;8016;49.928;9.372;2023-04-25T08:47:01;6.47;;;3.50;;
15831;SDS011;8016;49.928;9.372;2023-04-25T08:49:28;5.90;;;3.00;;
15831;SDS011;8016;49.928;9.372;2023-04-25T08:51:55;5.17;;;3.90;;
15831;SDS011;8016;49.928;9.372;2023-04-25T08:54:24;3.93;;;3.17;;
15831;SDS011;8016;49.928;9.372;2023-04-25T08:56:54;8.23;;;4.57;;
15831;SDS011;8016;49.928;9.372;2023-04-25T08:59:21;7.20;;;3.57;;
15831;SDS011;8016;49.928;9.372;2023-04-25T09:01:47;6.50;;;3.50;;
15831;SDS011;8016;49.928;9.372;2023-04-25T09:04:13;4.43;;;3.00;;
15831;SDS011;8016;49.928;9.372;2023-04-25T09:06:39;6.27;;;3.40;;
15831;SDS011;8016;49.928;9.372;2023-04-25T09:09:05;7.97;;;3.63;;
15831;SDS011;8016;49.928;9.372;2023-04-25T09:11:32;4.67;;;3.63;;
15831;SDS011;8016;49.928;9.372;2023-04-25T09:14:14;4.07;;;3.67;;
15831;SDS011;8016;49.928;9.372;2023-04-25T09:19:26;6.07;;;3.67;;
15831;SDS011;8016;49.928;9.372;2023-04-25T09:21:55;5.23;;;3.80;;
15831;SDS011;8016;49.928;9.372;2023-04-25T09:24:41;6.30;;;4.27;;
15831;SDS011;8016;49.928;9.372;2023-04-25T09:27:09;7.07;;;3.50;;
15831;SDS011;8016;49.928;9.372;2023-04-25T09:29:37;5.23;;;3.63;;
15831;SDS011;8016;49.928;9.372;2023-04-25T09:32:16;5.50;;;3.37;;
15831;SDS011;8016;49.928;9.372;2023-04-25T09:34:43;5.20;;;3.30;;
15831;SDS011;8016;49.928;9.372;2023-04-25T09:37:10;3.37;;;2.73;;
15831;SDS011;8016;49.928;9.372;2023-04-25T09:39:39;6.27;;;3.60;;
15831;SDS011;8016;49.928;9.372;2023-04-25T09:42:05;5.73;;;3.07;;
15831;SDS011;8016;49.928;9.372;2023-04-25T09:44:31;4.83;;;3.47;;
15831;SDS011;8016;49.928;9.372;2023-04-25T09:46:57;8.73;;;6.10;;
15831;SDS011;8016;49.928;9.372;2023-04-25T09:49:24;6.63;;;3.20;;
15831;SDS011;8016;49.928;9.372;2023-04-25T09:51:57;5.77;;;3.63;;
15831;SDS011;8016;49.928;9.372;2023-04-25T09:54:24;3.83;;;3.20;;
15831;SDS011;8016;49.928;9.372;2023-04-25T09:56:53;4.70;;;3.03;;
15831;SDS011;8016;49.928;9.372;2023-04-25T09:59:20;5.80;;;2.57;;
15831;SDS011;8016;49.928;9.372;2023-04-25T10:01:49;3.83;;;2.87;;
15831;SDS011;8016;49.928;9.372;2023-04-25T10:04:18;4.80;;;3.40;;
15831;SDS011;8016;49.928;9.372;2023-04-25T10:06:46;5.17;;;3.30;;
15831;SDS011;8016;49.928;9.372;2023-04-25T10:09:12;3.73;;;2.97;;
15831;SDS011;8016;49.928;9.372;2023-04-25T10:11:39;3.47;;;2.50;;
15831;SDS011;8016;49.928;9.372;2023-04-25T10:14:05;2.23;;;2.03;;
15831;SDS011;8016;49.928;9.372;2023-04-25T10:16:31;4.47;;;2.50;;
15831;SDS011;8016;49.928;9.372;2023-04-25T10:18:58;6.33;;;2.77;;
15831;SDS011;8016;49.928;9.372;2023-04-25T10:21:23;4.90;;;4.17;;
15831;SDS011;8016;49.928;9.372;2023-04-25T10:23:51;5.27;;;3.10;;
15831;SDS011;8016;49.928;9.372;2023-04-25T10:26:18;4.13;;;3.00;;
15831;SDS011;8016;49.928;9.372;2023-04-25T10:31:25;5.50;;;4.27;;
15831;SDS011;8016;49.928;9.372;2023-04-25T10:33:52;3.60;;;3.30;;
15831;SDS011;8016;49.928;9.372;2023-04-25T10:36:19;4.77;;;2.70;;
15831;SDS011;8016;49.928;9.372;2023-04-25T10:38:49;4.37;;;3.10;;
15831;SDS011;8016;49.928;9.372;2023-04-25T10:41:19;4.53;;;3.43;;
15831;SDS011;8016;49.928;9.372;2023-04-25T10:43:46;5.70;;;3.37;;
15831;SDS011;8016;49.928;9.372;2023-04-25T10:48:42;5.33;;;4.07;;
15831;SDS011;8016;49.928;9.372;2023-04-25T10:51:11;6.47;;;3.77;;
15831;SDS011;8016;49.928;9.372;2023-04-25T10:53:37;3.97;;;3.20;;
15831;SDS011;8016;49.928;9.372;2023-04-25T10:56:09;6.63;;;3.80;;
15831;SDS011;8016;49.928;9.372;2023-04-25T10:58:35;7.40;;;3.17;;
15831;SDS011;8016;49.928;9.372;2023-04-25T11:01:01;5.73;;;3.50;;
15831;SDS011;8016;49.928;9.372;2023-04-25T11:03:27;4.80;;;3.70;;
15831;SDS011;8016;49.928;9.372;2023-04-25T11:05:55;4.67;;;3.63;;
15831;SDS011;8016;49.928;9.372;2023-04-25T11:08:23;4.97;;;3.60;;
15831;SDS011;8016;49.928;9.372;2023-04-25T11:10:55;7.00;;;3.70;;
15831;SDS011;8016;49.928;9.372;2023-04-25T11:13:21;5.10;;;3.33;;
15831;SDS011;8016;49.928;9.372;2023-04-25T11:15:51;7.37;;;3.63;;
15831;SDS011;8016;49.928;9.372;2023-04-25T11:18:17;5.23;;;3.67;;
15831;SDS011;8016;49.928;9.372;2023-04-25T11:20:43;4.93;;;3.33;;
15831;SDS011;8016;49.928;9.372;2023-04-25T11:23:09;4.57;;;3.80;;
15831;SDS011;8016;49.928;9.372;2023-04-25T11:25:35;4.33;;;3.53;;
15831;SDS011;8016;49.928;9.372;2023-04-25T11:28:01;4.17;;;3.70;;
15831;SDS011;8016;49.928;9.372;2023-04-25T11:30:28;6.80;;;3.60;;
15831;SDS011;8016;49.928;9.372;2023-04-25T11:32:57;4.03;;;3.40;;
15831;SDS011;8016;49.928;9.372;2023-04-25T11:35:23;10.30;;;5.20;;
15831;SDS011;8016;49.928;9.372;2023-04-25T11:37:50;6.27;;;4.73;;
15831;SDS011;8016;49.928;9.372;2023-04-25T11:40:16;7.93;;;4.73;;
15831;SDS011;8016;49.928;9.372;2023-04-25T11:42:46;6.17;;;4.00;;
15831;SDS011;8016;49.928;9.372;2023-04-25T11:45:12;9.03;;;5.30;;
15831;SDS011;8016;49.928;9.372;2023-04-25T11:47:38;6.53;;;4.40;;
15831;SDS011;8016;49.928;9.372;2023-04-25T11:50:05;6.33;;;4.10;;
15831;SDS011;8016;49.928;9.372;2023-04-25T11:52:39;6.60;;;6.00;;
15831;SDS011;8016;49.928;9.372;2023-04-25T11:55:06;7.80;;;5.87;;
15831;SDS011;8016;49.928;9.372;2023-04-25T11:57:32;6.67;;;4.87;;
15831;SDS011;8016;49.928;9.372;2023-04-25T12:02:41;10.17;;;5.07;;
15831;SDS011;8016;49.928;9.372;2023-04-25T12:05:07;6.43;;;4.50;;
15831;SDS011;8016;49.928;9.372;2023-04-25T12:07:33;7.87;;;5.00;;
15831;SDS011;8016;49.928;9.372;2023-04-25T12:10:03;8.63;;;5.03;;
15831;SDS011;8016;49.928;9.372;2023-04-25T12:12:33;7.47;;;4.53;;
15831;SDS011;8016;49.928;9.372;2023-04-25T12:17:54;4.90;;;3.97;;
15831;SDS011;8016;49.928;9.372;2023-04-25T12:20:21;10.87;;;6.33;;
15831;SDS011;8016;49.928;9.372;2023-04-25T12:22:48;7.30;;;5.07;;
15831;SDS011;8016;49.928;9.372;2023-04-25T12:28:16;9.47;;;6.63;;
15831;SDS011;8016;49.928;9.372;2023-04-25T12:31:04;9.10;;;5.67;;
15831;SDS011;8016;49.928;9.372;2023-04-25T12:33:31;6.27;;;4.20;;
15831;SDS011;8016;49.928;9.372;2023-04-25T12:35:58;5.47;;;4.47;;
15831;SDS011;8016;49.928;9.372;2023-04-25T12:38:24;6.20;;;3.77;;
15831;SDS011;8016;49.928;9.372;2023-04-25T12:40:51;7.63;;;3.50;;
15831;SDS011;8016;49.928;9.372;2023-04-25T12:43:17;4.97;;;3.87;;
15831;SDS011;8016;49.928;9.372;2023-04-25T12:45:43;6.40;;;3.80;;
15831;SDS011;8016;49.928;9.372;2023-04-25T12:48:09;7.53;;;4.00;;
15831;SDS011;8016;49.928;9.372;2023-04-25T12:50:36;3.80;;;3.43;;
15831;SDS011;8016;49.928;9.372;2023-04-25T12:53:01;6.63;;;3.47;;
15831;SDS011;8016;49.928;9.372;2023-04-25T12:55:27;8.00;;;4.30;;
15831;SDS011;8016;49.928;9.372;2023-04-25T12:57:54;9.47;;;4.00;;
15831;SDS011;8016;49.928;9.372;2023-04-25T13:00:20;5.03;;;2.80;;
15831;SDS011;8016;49.928;9.372;2023-04-25T13:02:46;3.93;;;2.50;;
15831;SDS011;8016;49.928;9.372;2023-04-25T13:05:12;4.03;;;3.00;;
15831;SDS011;8016;49.928;9.372;2023-04-25T13:07:38;3.20;;;2.47;;
15831;SDS011;8016;49.928;9.372;2023-04-25T13:10:05;4.33;;;2.83;;
15831;SDS011;8016;49.928;9.372;2023-04-25T13:12:31;8.93;;;4.47;;
15831;SDS011;8016;49.928;9.372;2023-04-25T13:14:57;3.63;;;2.90;;
15831;SDS011;8016;49.928;9.372;2023-04-25T13:17:23;6.03;;;3.20;;
15831;SDS011;8016;49.928;9.372;2023-04-25T13:19:49;5.43;;;3.30;;
15831;SDS011;8016;49.928;9.372;2023-04-25T13:22:15;6.23;;;2.90;;
15831;SDS011;8016;49.928;9.372;2023-04-25T13:24:42;7.20;;;2.90;;
15831;SDS011;8016;49.928;9.372;2023-04-25T13:27:08;4.60;;;2.73;;
15831;SDS011;8016;49.928;9.372;2023-04-25T13:29:34;5.60;;;2.70;;
15831;SDS011;8016;49.928;9.372;2023-04-25T13:32:00;6.97;;;3.57;;
15831;SDS011;8016;49.928;9.372;2023-04-25T13:34:26;5.77;;;2.97;;
15831;SDS011;8016;49.928;9.372;2023-04-25T13:36:52;6.10;;;2.70;;
15831;SDS011;8016;49.928;9.372;2023-04-25T13:39:19;3.07;;;2.00;;
15831;SDS011;8016;49.928;9.372;2023-04-25T13:41:45;3.43;;;2.47;;
15831;SDS011;8016;49.928;9.372;2023-04-25T13:44:11;5.20;;;2.73;;
15831;SDS011;8016;49.928;9.372;2023-04-25T13:46:37;9.93;;;3.10;;
15831;SDS011;8016;49.928;9.372;2023-04-25T13:49:03;5.63;;;2.63;;
15831;SDS011;8016;49.928;9.372;2023-04-25T13:51:29;11.13;;;7.37;;
15831;SDS011;8016;49.928;9.372;2023-04-25T13:53:59;7.50;;;3.30;;
15831;SDS011;8016;49.928;9.372;2023-04-25T13:56:25;5.73;;;2.37;;
15831;SDS011;8016;49.928;9.372;2023-04-25T13:58:52;5.03;;;2.40;;
15831;SDS011;8016;49.928;9.372;2023-04-25T14:01:18;7.43;;;2.40;;
15831;SDS011;8016;49.928;9.372;2023-04-25T14:03:45;4.90;;;2.20;;
15831;SDS011;8016;49.928;9.372;2023-04-25T14:06:11;3.70;;;2.30;;
15831;SDS011;8016;49.928;9.372;2023-04-25T14:08:38;7.83;;;3.57;;
15831;SDS011;8016;49.928;9.372;2023-04-25T14:11:05;6.97;;;3.00;;
15831;SDS011;8016;49.928;9.372;2023-04-25T14:13:31;4.57;;;2.97;;
15831;SDS011;8016;49.928;9.372;2023-04-25T14:15:57;6.60;;;3.60;;
15831;SDS011;8016;49.928;9.372;2023-04-25T14:18:22;5.13;;;3.43;;
15831;SDS011;8016;49.928;9.372;2023-04-25T14:20:48;4.77;;;2.97;;
15831;SDS011;8016;49.928;9.372;2023-04-25T14:23:14;4.23;;;2.63;;
15831;SDS011;8016;49.928;9.372;2023-04-25T14:25:42;8.33;;;3.50;;
15831;SDS011;8016;49.928;9.372;2023-04-25T14:28:09;6.17;;;3.40;;
15831;SDS011;8016;49.928;9.372;2023-04-25T14:30:35;5.20;;;3.03;;
15831;SDS011;8016;49.928;9.372;2023-04-25T14:33:01;8.07;;;4.03;;
15831;SDS011;8016;49.928;9.372;2023-04-25T14:35:27;4.20;;;3.07;;
15831;SDS011;8016;49.928;9.372;2023-04-25T14:37:53;7.30;;;2.80;;
15831;SDS011;8016;49.928;9.372;2023-04-25T14:40:19;6.60;;;3.50;;
15831;SDS011;8016;49.928;9.372;2023-04-25T14:42:47;3.67;;;2.60;;
15831;SDS011;8016;49.928;9.372;2023-04-25T14:45:13;6.83;;;2.77;;
15831;SDS011;8016;49.928;9.372;2023-04-25T14:47:40;6.43;;;3.33;;
15831;SDS011;8016;49.928;9.372;2023-04-25T14:50:06;7.27;;;4.23;;
15831;SDS011;8016;49.928;9.372;2023-04-25T14:52:33;7.00;;;4.10;;
15831;SDS011;8016;49.928;9.372;2023-04-25T14:54:59;7.60;;;3.27;;
15831;SDS011;8016;49.928;9.372;2023-04-25T14:57:29;13.07;;;7.13;;
15831;SDS011;8016;49.928;9.372;2023-04-25T14:59:55;7.13;;;3.77;;
15831;SDS011;8016;49.928;9.372;2023-04-25T15:02:22;7.73;;;3.37;;
15831;SDS011;8016;49.928;9.372;2023-04-25T15:04:47;7.17;;;3.20;;
15831;SDS011;8016;49.928;9.372;2023-04-25T15:07:13;8.47;;;3.10;;